Aviation Digital Data Service (ADDS)

Output produced by METARs form (1810 UTC 01 February 2015)
found at http://www.aviationweather.gov/adds/metars/
 
KJST 011801Z AUTO 21007KT 1SM -SN BR SCT008 BKN020 OVC029 M01/M02 A2999 RMK AO2 P0000 T10061022
KJST 011754Z AUTO 21007KT 1SM -SN BR BKN008 OVC021 M01/M03 A2999 RMK AO2 SNB01E14B23 SLP183 P0000 60001 T10111028 11011 21044 58026
KJST 011737Z AUTO 22010KT 1 3/4SM -SN BR OVC007 M01/M03 A3001 RMK AO2 SNB01E14B23 P0000 T10111033
KJST 011715Z AUTO 22010KT 6SM BR BKN007 OVC012 M01/M03 A3002 RMK AO2 SNB01E14 P0000 T10111033
KJST 011654Z AUTO 21008KT 7SM SCT007 BKN012 OVC018 M02/M04 A3003 RMK AO2 SNE45 SLP199 P0000 T10221039
KJST 011646Z AUTO 21007KT 8SM FEW007 BKN013 OVC020 M02/M04 A3004 RMK AO2 SNE45 P0000 T10221039
KJST 011640Z AUTO 21007KT 3SM -SN BR SCT013 BKN020 OVC036 M02/M04 A3004 RMK AO2 P0000 T10221044
KJST 011629Z AUTO 21006KT 1SM -SN BR BKN022 BKN029 OVC036 M03/M04 A3004 RMK AO2 P0000 T10281044
KJST 011616Z AUTO 21005KT 1 1/4SM -SN BR BKN030 OVC038 M03/M05 A3005 RMK AO2 P0000 T10281050
KJST 011559Z AUTO 22008KT 2SM -SN BR FEW006 BKN032 OVC039 M03/M05 A3007 RMK AO2 P0000 T10281050
KJST 011554Z AUTO 23007KT 1 1/2SM -SN BR FEW006 BKN027 OVC036 M03/M05 A3007 RMK AO2 SLP214 P0001 T10281050
KJST 011550Z AUTO 21007KT 1 1/2SM -SN BR FEW006 BKN027 OVC034 M03/M05 A3007 RMK AO2 P0001
KJST 011532Z AUTO 22006KT 2 1/2SM -SN BR FEW006 BKN024 OVC034 M03/M05 A3008 RMK AO2 P0001 T10331050
KJST 011503Z AUTO 22007KT 1 1/2SM -SN BR BKN028 OVC039 M04/M06 A3009 RMK AO2 P0000 T10391056
KJST 011454Z AUTO 21007KT 1 1/2SM -SN BR BKN032 OVC041 M04/M06 A3009 RMK AO2 SNB32 SLP222 P0000 60000 T10391056 58005
KJST 011443Z AUTO 22008KT 1 1/2SM -SN BR BKN032 OVC041 M04/M06 A3009 RMK AO2 SNB32 P0000 T10391061
KJST 011436Z AUTO 20006KT 2SM -SN BR BKN032 OVC041 M04/M06 A3009 RMK AO2 SNB32 P0000 T10391061
KJST 011412Z AUTO 22006KT 3SM BR BKN036 BKN046 OVC060 M04/M06 A3010 RMK AO2 T10441061
KJST 011354Z AUTO 22005KT 2SM BR BKN037 OVC044 M04/M06 A3010 RMK AO2 SLP227 T10441061
KJST 011310Z AUTO 21006KT 4SM BR SCT010 OVC041 M04/M07 A3010 RMK AO2 T10441067
KJST 011254Z AUTO 22006KT 4SM HZ BKN009 OVC034 M04/M07 A3011 RMK AO2 SLP230 T10441072
KJST 011202Z AUTO 24005KT 9SM OVC009 M04/M07 A3010 RMK AO2 T10441072
KJST 011154Z AUTO 24006KT 10SM OVC010 M04/M07 A3010 RMK AO2 SLP228 T10441072 11033 21044 53001
KJST 011134Z AUTO 24006KT 8SM BKN012 OVC020 M04/M08 A3010 RMK AO2 T10441078
KJST 011108Z AUTO 23007KT 10SM BKN022 OVC029 M04/M09 A3010 RMK AO2 T10391089
KJST 011054Z AUTO 23005KT 10SM BKN030 BKN100 OVC120 M04/M09 A3010 RMK AO2 SLP226 T10391094
KJST 010954Z AUTO 24005KT 10SM FEW035 SCT120 M04/M09 A3009 RMK AO2 SLP225 T10391094
KJST 010854Z AUTO 26007KT 10SM OVC033 M03/M09 A3010 RMK AO2 SLP226 T10331094 58003
KJST 010754Z AUTO 26007KT 10SM OVC033 M04/M10 A3010 RMK AO2 SLP228 T10391100
KJST 010654Z AUTO 27011KT 10SM OVC030 M04/M10 A3011 RMK AO2 SLP229 T10391100
KJST 010635Z AUTO 27012KT 10SM OVC030 M04/M10 A3011 RMK AO2 T10441100
KJST 010554Z AUTO 27013KT 10SM OVC029 M04/M11 A3011 RMK AO2 SLP232 T10441106 11044 21078 57002
KJST 010454Z AUTO 26013KT 10SM OVC028 M05/M11 A3011 RMK AO2 SLP235 T10501111 410501156
KJST 010416Z AUTO 26014KT 10SM SCT027 M06/M12 A3011 RMK AO2 T10611117
KJST 010354Z AUTO 26014KT 10SM OVC027 M06/M12 A3011 RMK AO2 SLP238 T10611117
KJST 010346Z AUTO 27014KT 10SM BKN026 M06/M12 A3011 RMK AO2 T10611117
KJST 010254Z AUTO 27013KT 10SM CLR M07/M12 A3011 RMK AO2 SLP239 T10671117 58009
KJST 010154Z AUTO 27012KT 10SM CLR M07/M12 A3013 RMK AO2 SLP248 T10721122
KJST 010054Z AUTO 27010KT 10SM CLR M07/M13 A3014 RMK AO2 SLP253 T10721128
KJST 312354Z AUTO 26009KT 10SM CLR M07/M13 A3014 RMK AO2 SLP254 T10721128 11067 21089 51005
KJST 312254Z AUTO 27009KT 10SM CLR M07/M13 A3014 RMK AO2 SLP253 T10721128
KJST 312154Z AUTO 26011KT 6SM HZ CLR M07/M13 A3013 RMK AO2 SLP248 T10671128
KJST 312138Z AUTO 27012KT 10SM FEW002 M07/M13 A3013 RMK AO2 T10671128
KJST 312123Z AUTO 27008KT 1 3/4SM HZ FEW001 M07/M12 A3013 RMK AO2 T10671122
KJST 312054Z AUTO 26009KT 10SM CLR M07/M13 A3013 RMK AO2 SLP245 T10671128 56008
KJST 311954Z AUTO 25011KT 10SM FEW022 M07/M12 A3013 RMK AO2 SLP249 T10721122
KJST 311914Z AUTO 27009KT 6SM HZ FEW002 FEW020 M08/M13 A3014 RMK AO2 T10781128
KJST 311854Z AUTO 26013G17KT 10SM FEW020 M08/M13 A3014 RMK AO2 SLP252 T10781128
KJST 311813Z AUTO 28009G19KT 10SM SCT018 M08/M13 A3015 RMK AO2 T10831133
KJST 311754Z AUTO 27010G18KT 10SM BKN018 M09/M13 A3015 RMK AO2 SLP257 60000 T10891133 11089 21156 58017
KJST 311654Z AUTO 27012G17KT 9SM OVC017 M11/M14 A3020 RMK AO2 SNE24B41E50 SLP273 P0000 T11061144
KJST 311554Z AUTO 27011KT 5SM -SN SCT016 OVC022 M12/M16 A3021 RMK AO2 SNB1459 SLP279 P0000 T11171156
KJST 311454Z AUTO 27009KT 9SM OVC020 M13/M16 A3021 RMK AO2 SNB15E35 SLP279 P0000 60000 T11281161 51005
KJST 311419Z AUTO 27007KT 8SM -SN BKN019 M13/M17 A3020 RMK AO2 SNB15 P0000 T11331172
KJST 311354Z AUTO 28006KT 10SM CLR M14/M18 A3020 RMK AO2 SLP278 T11441183
KJST 311254Z AUTO 27009KT 10SM CLR M16/M18 A3020 RMK AO2 UPE00 SLP278 P0000 T11561183
KJST 311224Z AUTO 27009KT 10SM FEW012 M16/M18 A3019 RMK AO2 UPE00 P0000 T11561183
KJST 311154Z AUTO 27012G18KT 10SM UP OVC012 M16/M18 A3019 RMK AO2 UPB25SNE22 SLP275 P0000 60000 70002 T11561178 11133 21156 53005
KJST 311054Z AUTO 27009KT 6SM -SN BR OVC012 M16/M18 A3017 RMK AO2 UPB11E17SNB17 SLP267 P0000 T11561178
KJST 310954Z AUTO 27010KT 7SM OVC013 M15/M17 A3016 RMK AO2 SNE50 SLP264 P0000 T11501172
KJST 310854Z AUTO 29009KT 5SM -SN OVC013 M14/M17 A3017 RMK AO2 SLP266 P0000 60000 T11391167 58003
KJST 310815Z AUTO 28014G19KT 4SM -SN OVC014 M14/M17 A3019 RMK AO2 P0000 T11391167
KJST 310802Z AUTO 29012G21KT 3SM -SN OVC015 M14/M17 A3019 RMK AO2 P0000 T11391167
KJST 310754Z AUTO 29014G23KT 2 1/2SM -SN OVC015 M14/M17 A3019 RMK AO2 PK WND 29026/0658 SLP270 P0000 T11391167
KJST 310722Z AUTO 28014G24KT 2SM -SN OVC016 M14/M17 A3020 RMK AO2 PK WND 29026/0658 VIS 1 1/4V4 P0000 T11391167
KJST 310713Z AUTO 28011G19KT 3SM -SN OVC016 M14/M17 A3020 RMK AO2 PK WND 29026/0658 P0000 T11391167
KJST 310704Z AUTO 29013G26KT 2 1/2SM -SN OVC016 M14/M17 A3019 RMK AO2 PK WND 29026/0658 P0000 T11391172
KJST 310654Z AUTO 29016G25KT 1 3/4SM -SN OVC017 M14/M17 A3019 RMK AO2 PK WND 29029/0637 VIS 1V2 1/2 SLP270 P0000 T11391172
KJST 310650Z AUTO 29018G26KT 2SM -SN OVC017 M14/M17 A3018 RMK AO2 PK WND 29029/0637 P0000